Live from Altenrhein
LIVE
LSZR 292120Z AUTO VRB01KT 9999 NSC 20/15 Q1016

People´s C-Office:

T: +41 (0)71 858 51 65

E: c-office@peoples.ch

Price calculator for private jet flights

Plan and get an estimate for your own private jet flight.

Plan, get estimate prices and reserve your private jet flight. For groups or single person - this tool will always offer you a suitable private jet.


 

Do you have any questions? Don't hesistate to contact our c-office!